createdAt,value
2019-02-08T00:02:05.644Z,75.80
2019-02-08T00:04:35.976Z,77.30
2019-02-08T00:07:06.535Z,81.37
2019-02-08T00:09:37.018Z,81.07
2019-02-08T00:12:07.356Z,80.00
2019-02-08T00:14:37.847Z,78.50
2019-02-08T00:17:08.188Z,72.83
2019-02-08T00:19:38.622Z,77.03
2019-02-08T00:22:08.934Z,67.27
2019-02-08T00:24:39.340Z,73.87
2019-02-08T00:27:09.787Z,72.93
2019-02-08T00:29:40.317Z,79.97
2019-02-08T00:32:10.678Z,76.90
2019-02-08T00:34:41.049Z,75.73
2019-02-08T00:37:11.889Z,74.17
2019-02-08T00:39:42.334Z,76.13
2019-02-08T00:42:12.873Z,75.60
2019-02-08T00:44:43.532Z,75.23
2019-02-08T00:47:13.920Z,72.70
2019-02-08T00:49:44.665Z,75.33
2019-02-08T00:52:15.477Z,70.20
2019-02-08T00:54:45.916Z,71.50
2019-02-08T00:57:16.328Z,68.50
2019-02-08T00:59:46.773Z,69.10
2019-02-08T01:02:17.298Z,67.73
2019-02-08T01:04:47.723Z,76.37
2019-02-08T01:07:30.531Z,65.97
2019-02-08T01:10:00.956Z,65.57
2019-02-08T01:12:31.301Z,59.33
2019-02-08T01:15:02.667Z,67.77
2019-02-08T01:17:33.174Z,69.30
2019-02-08T01:20:03.602Z,66.13
2019-02-08T01:22:34.122Z,69.10
2019-02-08T01:25:06.023Z,68.07
2019-02-08T01:27:36.411Z,72.90
2019-02-08T01:30:09.491Z,69.50
2019-02-08T01:32:40.002Z,69.60
2019-02-08T01:35:10.671Z,60.50
2019-02-08T01:37:41.082Z,66.53
2019-02-08T01:40:15.433Z,68.67
2019-02-08T01:42:45.779Z,62.77
2019-02-08T01:45:18.582Z,66.23
2019-02-08T01:47:48.937Z,64.70
2019-02-08T01:50:24.116Z,61.43
2019-02-08T01:52:54.394Z,67.60
2019-02-08T01:55:25.833Z,67.57
2019-02-08T01:57:56.321Z,64.23
2019-02-08T02:00:35.039Z,65.30
2019-02-08T02:03:06.341Z,64.37
2019-02-08T02:05:36.773Z,65.17
2019-02-08T02:08:07.267Z,69.30
2019-02-08T02:10:39.850Z,68.60
2019-02-08T02:13:10.843Z,68.13
2019-02-08T02:15:41.174Z,66.90
2019-02-08T02:18:12.467Z,62.13
2019-02-08T02:20:43.532Z,67.80
2019-02-08T02:23:15.642Z,67.43
2019-02-08T02:25:46.036Z,68.07
2019-02-08T02:28:16.338Z,77.70
2019-02-08T02:30:46.810Z,63.50
2019-02-08T02:33:17.091Z,74.10
2019-02-08T02:35:47.502Z,69.40
2019-02-08T02:38:17.966Z,71.83
2019-02-08T02:40:48.371Z,76.00
2019-02-08T02:43:18.542Z,70.53
2019-02-08T02:45:48.865Z,68.47
2019-02-08T02:48:19.090Z,63.13
2019-02-08T02:50:49.664Z,68.17
2019-02-08T02:53:20.326Z,69.70
2019-02-08T02:55:50.735Z,74.93
2019-02-08T02:58:21.119Z,65.90
2019-02-08T03:00:52.422Z,66.80
2019-02-08T03:03:22.684Z,61.90
2019-02-08T03:05:53.040Z,72.80
2019-02-08T03:08:23.393Z,73.60
2019-02-08T03:10:53.897Z,68.27
2019-02-08T03:13:24.283Z,70.53
2019-02-08T03:15:54.863Z,64.60
2019-02-08T03:18:25.302Z,74.17
2019-02-08T03:20:55.594Z,69.90
2019-02-08T03:23:26.234Z,72.17
2019-02-08T03:25:57.991Z,62.37
2019-02-08T03:28:28.327Z,71.73
2019-02-08T03:30:59.268Z,72.47
2019-02-08T03:33:29.901Z,63.80
2019-02-08T03:36:00.212Z,71.80
2019-02-08T03:38:30.571Z,70.93
2019-02-08T03:41:00.901Z,75.67
2019-02-08T03:43:31.158Z,77.33
2019-02-08T03:46:02.569Z,72.67
2019-02-08T03:48:32.948Z,78.00
2019-02-08T03:51:03.312Z,68.40
2019-02-08T03:53:33.738Z,79.73
2019-02-08T03:56:04.144Z,79.27
2019-02-08T03:58:34.457Z,80.93
2019-02-08T04:01:06.454Z,84.20
2019-02-08T04:03:36.847Z,80.80
2019-02-08T04:06:08.292Z,76.07
2019-02-08T04:08:38.622Z,79.67
2019-02-08T04:11:09.065Z,77.57
2019-02-08T04:13:39.453Z,80.43
2019-02-08T04:16:09.697Z,84.70
2019-02-08T04:18:40.094Z,79.40
2019-02-08T04:21:10.565Z,85.40
2019-02-08T04:23:40.954Z,85.47
2019-02-08T04:26:11.271Z,83.27
2019-02-08T04:28:41.612Z,79.30
2019-02-08T04:31:11.852Z,81.93
2019-02-08T04:33:42.299Z,80.13
2019-02-08T04:36:12.698Z,80.67
2019-02-08T04:38:43.082Z,78.00
2019-02-08T04:41:13.563Z,75.83
2019-02-08T04:43:45.004Z,85.43
2019-02-08T04:46:15.498Z,80.83
2019-02-08T04:48:45.722Z,82.30
2019-02-08T04:51:15.994Z,75.37
2019-02-08T04:53:46.512Z,81.50
2019-02-08T04:56:16.875Z,84.40
2019-02-08T04:58:47.108Z,78.07
2019-02-08T05:01:17.861Z,84.60
2019-02-08T05:03:48.128Z,83.17
2019-02-08T05:06:18.610Z,84.07
2019-02-08T05:08:49.023Z,83.40
2019-02-08T05:11:19.302Z,84.40
2019-02-08T05:13:49.684Z,88.97
2019-02-08T05:16:20.140Z,85.10
2019-02-08T05:18:50.450Z,83.00
2019-02-08T05:21:20.792Z,79.13
2019-02-08T05:23:51.066Z,84.17
2019-02-08T05:26:21.365Z,84.70
2019-02-08T05:28:51.789Z,86.40
2019-02-08T05:31:22.126Z,78.57
2019-02-08T05:33:52.514Z,83.17
2019-02-08T05:36:22.942Z,80.00
2019-02-08T05:38:53.363Z,88.97
2019-02-08T05:41:23.685Z,83.13
2019-02-08T05:43:53.991Z,80.50
2019-02-08T05:46:24.373Z,97.70
2019-02-08T05:48:54.746Z,83.80
2019-02-08T05:51:25.302Z,87.87
2019-02-08T05:53:55.562Z,83.90
2019-02-08T05:56:26.116Z,82.77
2019-02-08T05:58:56.414Z,80.33
2019-02-08T06:01:26.801Z,86.87
2019-02-08T06:03:59.267Z,79.13
2019-02-08T06:06:29.885Z,80.23
2019-02-08T06:09:00.321Z,82.97
2019-02-08T06:11:32.814Z,87.50
2019-02-08T06:14:02.816Z,84.73
2019-02-08T06:16:33.283Z,87.10
2019-02-08T06:19:03.882Z,80.23
2019-02-08T06:21:34.305Z,86.53
2019-02-08T06:24:04.867Z,90.67
2019-02-08T06:26:35.186Z,83.40
2019-02-08T06:29:05.784Z,89.40
2019-02-08T06:31:36.212Z,87.93
2019-02-08T06:34:06.579Z,86.33
2019-02-08T06:36:37.232Z,85.07
2019-02-08T06:39:10.784Z,85.53
2019-02-08T06:41:41.454Z,85.47
2019-02-08T06:44:11.858Z,94.70
2019-02-08T06:46:42.269Z,86.40
2019-02-08T06:49:12.614Z,85.10
2019-02-08T06:51:43.397Z,90.17
2019-02-08T06:54:13.684Z,86.77
2019-02-08T06:57:02.990Z,90.17
2019-02-08T06:59:43.915Z,87.60
2019-02-08T07:02:22.729Z,90.30
2019-02-08T07:05:12.175Z,77.37
2019-02-08T07:07:52.339Z,87.70
2019-02-08T07:10:41.751Z,91.47
2019-02-08T07:13:31.257Z,84.73
2019-02-08T07:16:16.676Z,81.63
2019-02-08T07:18:52.544Z,82.70
2019-02-08T07:21:34.908Z,83.70
2019-02-08T07:24:24.623Z,87.03
2019-02-08T07:27:02.328Z,84.63
2019-02-08T07:29:51.798Z,85.57
2019-02-08T07:32:33.899Z,85.27
2019-02-08T07:35:21.803Z,81.40
2019-02-08T07:38:11.366Z,76.57
2019-02-08T07:40:58.419Z,83.03
2019-02-08T07:43:43.514Z,86.13
2019-02-08T07:46:32.959Z,88.87
2019-02-08T07:49:09.205Z,86.90
2019-02-08T07:51:58.691Z,81.90
2019-02-08T07:54:38.543Z,81.50
2019-02-08T07:57:27.930Z,86.97
2019-02-08T08:00:17.393Z,86.07
2019-02-08T08:03:06.864Z,86.53
2019-02-08T08:05:52.227Z,85.17
2019-02-08T08:08:42.590Z,82.50
2019-02-08T08:11:25.696Z,75.73
2019-02-08T08:14:04.972Z,80.23
2019-02-08T08:16:52.662Z,76.73
2019-02-08T08:19:30.733Z,79.10
2019-02-08T08:22:20.162Z,77.37
2019-02-08T08:25:09.663Z,71.37
2019-02-08T08:27:59.193Z,78.23
2019-02-08T08:30:48.715Z,68.90
2019-02-08T08:33:27.959Z,68.83
2019-02-08T08:36:34.827Z,70.33
2019-02-08T08:39:43.694Z,66.57
2019-02-08T08:42:52.678Z,63.17
2019-02-08T08:45:37.506Z,63.27
2019-02-08T08:48:45.836Z,62.23
2019-02-08T08:51:54.724Z,63.93
2019-02-08T08:54:56.680Z,67.80
2019-02-08T08:57:54.190Z,60.83
2019-02-08T09:00:53.274Z,68.60
2019-02-08T09:03:55.866Z,66.20
2019-02-08T09:07:04.816Z,63.97
2019-02-08T09:10:13.332Z,63.77
2019-02-08T09:12:57.225Z,60.77
2019-02-08T09:16:06.315Z,59.40
2019-02-08T09:19:05.098Z,56.53
2019-02-08T09:21:56.344Z,63.07
2019-02-08T09:25:05.481Z,60.20
2019-02-08T09:28:04.003Z,61.10
2019-02-08T09:30:53.752Z,68.03
2019-02-08T09:33:55.543Z,60.13
2019-02-08T09:37:04.534Z,51.10
2019-02-08T09:39:51.672Z,54.93
2019-02-08T09:43:00.590Z,56.20
2019-02-08T09:45:40.745Z,60.30
2019-02-08T09:48:38.583Z,56.47
2019-02-08T09:51:35.723Z,54.87
2019-02-08T09:54:39.736Z,57.13
2019-02-08T09:57:38.223Z,55.10
2019-02-08T10:00:47.417Z,55.60
2019-02-08T10:03:56.435Z,55.37
2019-02-08T10:06:50.913Z,54.90
2019-02-08T10:10:02.759Z,60.73
2019-02-08T10:13:11.911Z,57.57
2019-02-08T10:16:20.898Z,50.77
2019-02-08T10:19:30.862Z,52.87
2019-02-08T10:22:26.312Z,54.03
2019-02-08T10:25:35.306Z,59.03
2019-02-08T10:28:44.252Z,55.50
2019-02-08T10:31:39.649Z,59.30
2019-02-08T10:34:35.543Z,53.13
2019-02-08T10:37:39.932Z,52.63
2019-02-08T10:40:48.882Z,50.63
2019-02-08T10:43:57.845Z,53.67
2019-02-08T10:47:06.821Z,50.13
2019-02-08T10:50:12.496Z,52.23
2019-02-08T10:53:09.253Z,54.27
2019-02-08T10:56:04.585Z,52.70
2019-02-08T10:59:09.891Z,54.93
2019-02-08T11:02:18.751Z,50.87
2019-02-08T11:05:19.930Z,51.37
2019-02-08T11:08:29.103Z,55.43
2019-02-08T11:11:25.108Z,47.03
2019-02-08T11:14:16.414Z,50.83
2019-02-08T11:17:25.443Z,51.57
2019-02-08T11:19:56.085Z,53.23
2019-02-08T11:22:26.468Z,49.63
2019-02-08T11:24:56.773Z,52.07
2019-02-08T11:27:27.213Z,44.27
2019-02-08T11:29:57.475Z,58.90
2019-02-08T11:32:42.511Z,54.87
2019-02-08T11:34:59.834Z,45.63
2019-02-08T11:37:30.202Z,53.77
2019-02-08T11:40:00.647Z,53.93
2019-02-08T11:42:31.239Z,50.73
2019-02-08T11:45:01.636Z,55.03
2019-02-08T11:47:32.057Z,52.13
2019-02-08T11:50:02.384Z,53.53
2019-02-08T11:52:32.974Z,55.10
2019-02-08T11:55:03.330Z,54.97
2019-02-08T11:57:34.377Z,53.30
2019-02-08T12:00:06.315Z,56.07
2019-02-08T12:02:40.595Z,53.13
2019-02-08T12:05:08.892Z,59.07
2019-02-08T12:07:39.311Z,50.73
2019-02-08T12:10:09.856Z,57.40
2019-02-08T12:12:40.226Z,51.17
2019-02-08T12:15:11.752Z,56.73
2019-02-08T12:17:42.122Z,55.07
2019-02-08T12:20:12.550Z,59.40
2019-02-08T12:22:43.130Z,51.30
2019-02-08T12:25:13.492Z,54.67
2019-02-08T12:27:43.848Z,53.00
2019-02-08T12:30:19.867Z,53.67
2019-02-08T12:32:50.296Z,51.93
2019-02-08T12:35:20.645Z,53.80
2019-02-08T12:37:51.243Z,49.73
2019-02-08T12:40:21.764Z,57.63
2019-02-08T12:42:52.062Z,44.63
2019-02-08T12:45:22.462Z,52.50
2019-02-08T12:47:52.847Z,48.40
2019-02-08T12:50:23.401Z,52.17
2019-02-08T12:52:53.751Z,51.93
2019-02-08T12:55:24.123Z,55.77
2019-02-08T12:57:54.511Z,55.07
2019-02-08T13:00:24.916Z,56.73
2019-02-08T13:02:55.280Z,50.70
2019-02-08T13:05:25.653Z,52.40
2019-02-08T13:07:56.002Z,52.33
2019-02-08T13:10:26.514Z,50.17
2019-02-08T13:12:56.847Z,53.43
2019-02-08T13:15:27.199Z,50.13
2019-02-08T13:17:57.560Z,54.67
2019-02-08T13:20:28.139Z,51.23
2019-02-08T13:22:58.471Z,48.63
2019-02-08T13:25:28.764Z,51.60
2019-02-08T13:27:59.029Z,50.53
2019-02-08T13:30:29.813Z,47.13
2019-02-08T13:33:00.091Z,48.87
2019-02-08T13:35:30.613Z,41.83
2019-02-08T13:38:01.131Z,46.67
2019-02-08T13:40:31.472Z,51.07
2019-02-08T13:43:02.031Z,46.10
2019-02-08T13:45:32.487Z,46.07
2019-02-08T13:48:02.833Z,49.03
2019-02-08T13:50:33.358Z,48.20
2019-02-08T13:53:03.698Z,49.10
2019-02-08T13:55:34.083Z,45.67
2019-02-08T13:58:06.076Z,43.87
2019-02-08T14:00:37.526Z,43.57
2019-02-08T14:03:08.222Z,41.27
2019-02-08T14:05:38.821Z,41.73
2019-02-08T14:08:09.168Z,39.53
2019-02-08T14:10:39.683Z,43.27
2019-02-08T14:13:10.026Z,43.80
2019-02-08T14:15:40.450Z,41.37
2019-02-08T14:18:10.836Z,42.97
2019-02-08T14:20:41.212Z,45.37
2019-02-08T14:23:11.892Z,37.43
2019-02-08T14:25:42.433Z,44.03
2019-02-08T14:28:12.713Z,40.60
2019-02-08T14:30:43.426Z,41.77
2019-02-08T14:33:13.885Z,41.63
2019-02-08T14:35:44.267Z,37.47
2019-02-08T14:38:18.843Z,40.13
2019-02-08T14:40:49.312Z,46.50
2019-02-08T14:43:19.607Z,40.10
2019-02-08T14:45:50.037Z,46.43
2019-02-08T14:48:20.665Z,40.30
2019-02-08T14:50:51.171Z,45.83
2019-02-08T14:53:21.709Z,46.30
2019-02-08T14:55:52.393Z,49.17
2019-02-08T14:58:22.846Z,45.10
2019-02-08T15:00:53.189Z,49.87
2019-02-08T15:03:23.737Z,53.27
2019-02-08T15:05:54.174Z,47.63
2019-02-08T15:08:24.529Z,51.70
2019-02-08T15:10:54.891Z,55.83
2019-02-08T15:13:25.258Z,55.37
2019-02-08T15:15:55.783Z,55.07
2019-02-08T15:18:26.201Z,58.63
2019-02-08T15:20:56.635Z,63.00
2019-02-08T15:23:27.561Z,58.47
2019-02-08T15:25:58.085Z,59.63
2019-02-08T15:28:28.497Z,67.53
2019-02-08T15:30:59.053Z,62.67
2019-02-08T15:33:29.484Z,60.83
2019-02-08T15:36:00.170Z,68.40
2019-02-08T15:38:30.742Z,73.87
2019-02-08T15:41:01.389Z,72.47
2019-02-08T15:43:32.004Z,72.17
2019-02-08T15:46:04.863Z,69.60
2019-02-08T15:48:35.398Z,75.13
2019-02-08T15:51:05.947Z,78.33
2019-02-08T15:53:37.824Z,70.57
2019-02-08T15:56:11.759Z,74.40
2019-02-08T15:58:42.244Z,82.67
2019-02-08T16:01:13.150Z,72.03
2019-02-08T16:03:44.610Z,80.43
2019-02-08T16:06:14.988Z,73.30
2019-02-08T16:08:45.378Z,73.23
2019-02-08T16:11:15.958Z,85.03
2019-02-08T16:13:46.257Z,80.23
2019-02-08T16:16:16.594Z,86.03
2019-02-08T16:18:46.830Z,82.93
2019-02-08T16:21:17.263Z,89.13
2019-02-08T16:23:47.892Z,83.40
2019-02-08T16:26:18.282Z,81.97
2019-02-08T16:28:48.681Z,78.77
2019-02-08T16:31:19.129Z,81.70
2019-02-08T16:33:49.593Z,86.23
2019-02-08T16:36:20.083Z,79.60
2019-02-08T16:38:50.580Z,83.03
2019-02-08T16:41:20.991Z,82.83
2019-02-08T16:43:51.413Z,82.47
2019-02-08T16:46:21.976Z,86.10
2019-02-08T16:48:52.542Z,79.40
2019-02-08T16:51:23.043Z,86.93
2019-02-08T16:53:53.887Z,85.47
2019-02-08T16:56:24.474Z,78.60
2019-02-08T16:58:54.806Z,89.40
2019-02-08T17:01:25.327Z,85.73
2019-02-08T17:03:55.790Z,85.90
2019-02-08T17:06:26.419Z,80.93
2019-02-08T17:08:57.120Z,83.50
2019-02-08T17:11:27.685Z,86.67
2019-02-08T17:13:58.211Z,90.43
2019-02-08T17:16:28.649Z,77.93
2019-02-08T17:18:59.187Z,90.43
2019-02-08T17:21:29.702Z,85.30
2019-02-08T17:24:00.234Z,87.43
2019-02-08T17:26:30.711Z,90.20
2019-02-08T17:29:01.229Z,86.33
2019-02-08T17:31:32.007Z,94.30
2019-02-08T17:34:03.061Z,103.83
2019-02-08T17:36:33.560Z,112.97
2019-02-08T17:39:05.827Z,103.27
2019-02-08T17:41:37.343Z,103.70
2019-02-08T17:44:08.178Z,104.90
2019-02-08T17:46:39.270Z,108.90
2019-02-08T17:49:10.023Z,104.10
2019-02-08T17:51:40.820Z,102.37
2019-02-08T17:54:12.292Z,110.27
2019-02-08T17:56:43.062Z,105.27
2019-02-08T17:59:13.449Z,100.23
2019-02-08T18:01:43.926Z,97.20
2019-02-08T18:04:14.428Z,116.37
2019-02-08T18:06:45.095Z,106.47
2019-02-08T18:09:24.183Z,100.80
2019-02-08T18:11:54.704Z,103.33
2019-02-08T18:14:25.524Z,99.63
2019-02-08T18:16:55.749Z,107.83
2019-02-08T18:19:26.488Z,85.50
2019-02-08T18:21:56.870Z,94.83
2019-02-08T18:24:27.351Z,100.43
2019-02-08T18:26:58.112Z,113.50
2019-02-08T18:29:28.462Z,99.07
2019-02-08T18:31:58.886Z,100.33
2019-02-08T18:34:29.177Z,96.47
2019-02-08T18:36:59.735Z,120.10
2019-02-08T18:39:30.323Z,113.93
2019-02-08T18:42:00.692Z,109.47
2019-02-08T18:44:31.091Z,120.63
2019-02-08T18:47:01.470Z,109.23
2019-02-08T18:49:32.824Z,123.63
2019-02-08T18:52:03.735Z,103.87
2019-02-08T18:54:34.130Z,112.00
2019-02-08T18:57:04.528Z,101.03
2019-02-08T18:59:34.826Z,105.03
2019-02-08T19:02:05.100Z,108.10
2019-02-08T19:04:35.493Z,103.50
2019-02-08T19:07:06.116Z,100.57
2019-02-08T19:09:36.584Z,109.95
2019-02-08T19:12:07.042Z,107.90
2019-02-08T19:14:45.029Z,107.23
2019-02-08T19:17:15.601Z,108.87
2019-02-08T19:19:46.244Z,103.60
2019-02-08T19:22:16.676Z,99.23
2019-02-08T19:24:47.032Z,114.43
2019-02-08T19:27:18.908Z,123.80
2019-02-08T19:29:49.380Z,129.70
2019-02-08T19:32:19.813Z,126.10
2019-02-08T19:34:50.349Z,158.77
2019-02-08T19:37:23.741Z,135.93
2019-02-08T19:39:54.367Z,127.77
2019-02-08T19:42:24.755Z,134.43
2019-02-08T19:44:55.445Z,127.20
2019-02-08T19:47:25.954Z,118.50
2019-02-08T19:49:56.547Z,135.00
2019-02-08T19:52:26.972Z,118.27
2019-02-08T19:54:57.314Z,128.07
2019-02-08T19:57:28.107Z,117.43
2019-02-08T20:00:00.662Z,117.67
2019-02-08T20:02:31.128Z,105.90
2019-02-08T20:05:01.439Z,115.50
2019-02-08T20:07:32.117Z,112.43
2019-02-08T20:10:02.773Z,117.97
2019-02-08T20:12:33.443Z,102.63
2019-02-08T20:15:03.882Z,122.70
2019-02-08T20:17:34.372Z,104.57
2019-02-08T20:20:06.838Z,104.73
2019-02-08T20:22:37.248Z,97.90
2019-02-08T20:25:21.921Z,102.67
2019-02-08T20:27:52.402Z,102.47
2019-02-08T20:30:23.163Z,104.80
2019-02-08T20:32:54.301Z,96.63
2019-02-08T20:35:31.552Z,89.90
2019-02-08T20:41:04.780Z,96.80
2019-02-08T20:43:35.241Z,93.67
2019-02-08T20:46:05.674Z,91.93
2019-02-08T20:48:36.022Z,92.93
2019-02-08T20:51:06.517Z,92.47
2019-02-08T20:53:36.929Z,99.40
2019-02-08T20:56:07.383Z,116.00
2019-02-08T20:58:37.912Z,124.57
2019-02-08T21:01:08.361Z,141.67
2019-02-08T21:03:38.940Z,154.27
2019-02-08T21:06:09.433Z,143.70
2019-02-08T21:08:39.994Z,142.73
2019-02-08T21:11:10.647Z,145.07
2019-02-08T21:13:41.090Z,147.77
2019-02-08T21:16:11.695Z,145.77
2019-02-08T21:18:42.214Z,139.67
2019-02-08T21:21:12.593Z,118.03
2019-02-08T21:23:43.061Z,125.23
2019-02-08T21:26:13.457Z,125.80
2019-02-08T21:28:43.811Z,128.23
2019-02-08T21:31:14.319Z,121.10
2019-02-08T21:33:44.542Z,117.40
2019-02-08T21:36:14.871Z,110.83
2019-02-08T21:38:45.243Z,114.00
2019-02-08T21:41:15.562Z,130.83
2019-02-08T21:43:46.300Z,142.97
2019-02-08T21:46:16.840Z,137.00
2019-02-08T21:48:47.218Z,141.97
2019-02-08T21:51:17.598Z,139.30
2019-02-08T21:53:48.019Z,157.17
2019-02-08T21:56:18.329Z,142.50
2019-02-08T21:58:48.889Z,140.60
2019-02-08T22:01:19.360Z,133.07
2019-02-08T22:03:49.693Z,133.57
2019-02-08T22:06:20.958Z,139.90
2019-02-08T22:08:51.389Z,130.53
2019-02-08T22:11:21.720Z,139.40
2019-02-08T22:13:52.122Z,147.90
2019-02-08T22:16:22.840Z,143.67
2019-02-08T22:18:56.230Z,143.23
2019-02-08T22:21:26.559Z,132.93
2019-02-08T22:23:57.009Z,129.73
2019-02-08T22:26:27.453Z,140.80
2019-02-08T22:28:57.743Z,146.30
2019-02-08T22:31:28.135Z,157.23
2019-02-08T22:33:58.835Z,156.87
2019-02-08T22:36:29.199Z,164.17
2019-02-08T22:38:59.582Z,169.83
2019-02-08T22:41:30.035Z,173.60
2019-02-08T22:44:00.609Z,167.63
2019-02-08T22:46:31.169Z,173.53
2019-02-08T22:49:01.582Z,173.87
2019-02-08T22:51:31.912Z,179.40
2019-02-08T22:54:03.362Z,169.07
2019-02-08T22:56:33.740Z,178.60
2019-02-08T22:59:04.525Z,181.93
2019-02-08T23:01:37.799Z,186.20
2019-02-08T23:04:08.718Z,194.63
2019-02-08T23:06:44.639Z,202.60
2019-02-08T23:09:24.016Z,192.77
2019-02-08T23:11:54.331Z,191.13
2019-02-08T23:14:24.712Z,188.83
2019-02-08T23:16:55.090Z,190.27
2019-02-08T23:19:25.548Z,197.83
2019-02-08T23:21:56.499Z,186.97
2019-02-08T23:24:26.918Z,192.10
2019-02-08T23:26:58.263Z,183.23
2019-02-08T23:29:30.288Z,181.00
2019-02-08T23:32:00.786Z,186.30
2019-02-08T23:34:31.197Z,198.27
2019-02-08T23:37:01.599Z,185.13
2019-02-08T23:39:32.260Z,200.53
2019-02-08T23:42:02.574Z,192.13
2019-02-08T23:44:32.981Z,210.30
2019-02-08T23:47:03.262Z,205.00
2019-02-08T23:49:36.444Z,214.03
2019-02-08T23:52:06.731Z,198.27
2019-02-08T23:54:37.195Z,203.90
2019-02-08T23:57:07.436Z,208.37
2019-02-08T23:59:38.475Z,209.77
